sensor_id;sensor_type;location;lat;lon;timestamp;P1;durP1;ratioP1;P2;durP2;ratioP2
14903;SDS011;7543;53.148;8.234;2022-12-29T00:01:38;2.00;;;1.60;;
14903;SDS011;7543;53.148;8.234;2022-12-29T00:04:09;1.60;;;1.50;;
14903;SDS011;7543;53.148;8.234;2022-12-29T00:06:42;1.70;;;1.60;;
14903;SDS011;7543;53.148;8.234;2022-12-29T00:09:11;1.70;;;1.30;;
14903;SDS011;7543;53.148;8.234;2022-12-29T00:11:39;1.53;;;1.30;;
14903;SDS011;7543;53.148;8.234;2022-12-29T00:14:08;1.97;;;1.70;;
14903;SDS011;7543;53.148;8.234;2022-12-29T00:16:54;2.10;;;1.70;;
14903;SDS011;7543;53.148;8.234;2022-12-29T00:19:24;2.10;;;1.53;;
14903;SDS011;7543;53.148;8.234;2022-12-29T00:22:09;1.73;;;1.50;;
14903;SDS011;7543;53.148;8.234;2022-12-29T00:24:55;2.70;;;1.47;;
14903;SDS011;7543;53.148;8.234;2022-12-29T00:27:41;1.83;;;1.73;;
14903;SDS011;7543;53.148;8.234;2022-12-29T00:30:27;1.73;;;1.60;;
14903;SDS011;7543;53.148;8.234;2022-12-29T00:33:14;2.23;;;1.70;;
14903;SDS011;7543;53.148;8.234;2022-12-29T00:36:02;3.23;;;1.80;;
14903;SDS011;7543;53.148;8.234;2022-12-29T00:38:32;2.97;;;2.03;;
14903;SDS011;7543;53.148;8.234;2022-12-29T00:41:19;2.10;;;1.80;;
14903;SDS011;7543;53.148;8.234;2022-12-29T00:44:05;2.20;;;1.73;;
14903;SDS011;7543;53.148;8.234;2022-12-29T00:46:33;2.70;;;1.90;;
14903;SDS011;7543;53.148;8.234;2022-12-29T00:49:02;2.70;;;1.93;;
14903;SDS011;7543;53.148;8.234;2022-12-29T00:51:50;4.03;;;1.90;;
14903;SDS011;7543;53.148;8.234;2022-12-29T00:54:19;3.43;;;2.23;;
14903;SDS011;7543;53.148;8.234;2022-12-29T00:56:47;2.10;;;1.90;;
14903;SDS011;7543;53.148;8.234;2022-12-29T00:59:17;3.27;;;2.27;;
14903;SDS011;7543;53.148;8.234;2022-12-29T01:01:46;3.67;;;2.23;;
14903;SDS011;7543;53.148;8.234;2022-12-29T01:04:15;4.13;;;1.83;;
14903;SDS011;7543;53.148;8.234;2022-12-29T01:06:44;3.33;;;2.40;;
14903;SDS011;7543;53.148;8.234;2022-12-29T01:09:17;4.03;;;2.30;;
14903;SDS011;7543;53.148;8.234;2022-12-29T01:12:04;2.87;;;2.20;;
14903;SDS011;7543;53.148;8.234;2022-12-29T01:14:33;3.70;;;2.43;;
14903;SDS011;7543;53.148;8.234;2022-12-29T01:17:02;2.03;;;1.70;;
14903;SDS011;7543;53.148;8.234;2022-12-29T01:19:30;2.20;;;1.60;;
14903;SDS011;7543;53.148;8.234;2022-12-29T01:21:58;2.40;;;2.00;;
14903;SDS011;7543;53.148;8.234;2022-12-29T01:24:29;2.93;;;2.10;;
14903;SDS011;7543;53.148;8.234;2022-12-29T01:26:57;1.70;;;1.60;;
14903;SDS011;7543;53.148;8.234;2022-12-29T01:29:26;2.77;;;1.87;;
14903;SDS011;7543;53.148;8.234;2022-12-29T01:31:54;2.03;;;1.80;;
14903;SDS011;7543;53.148;8.234;2022-12-29T01:34:23;2.43;;;1.80;;
14903;SDS011;7543;53.148;8.234;2022-12-29T01:36:51;3.27;;;1.63;;
14903;SDS011;7543;53.148;8.234;2022-12-29T01:39:19;2.60;;;1.53;;
14903;SDS011;7543;53.148;8.234;2022-12-29T01:41:49;2.53;;;1.77;;
14903;SDS011;7543;53.148;8.234;2022-12-29T01:47:20;2.17;;;1.60;;
14903;SDS011;7543;53.148;8.234;2022-12-29T01:50:03;2.10;;;1.73;;
14903;SDS011;7543;53.148;8.234;2022-12-29T01:52:33;2.03;;;1.60;;
14903;SDS011;7543;53.148;8.234;2022-12-29T01:55:03;2.30;;;1.70;;
14903;SDS011;7543;53.148;8.234;2022-12-29T01:57:36;3.33;;;1.73;;
14903;SDS011;7543;53.148;8.234;2022-12-29T02:00:07;2.27;;;1.50;;
14903;SDS011;7543;53.148;8.234;2022-12-29T02:02:41;1.93;;;1.73;;
14903;SDS011;7543;53.148;8.234;2022-12-29T02:05:14;2.53;;;1.63;;
14903;SDS011;7543;53.148;8.234;2022-12-29T02:07:47;1.60;;;1.40;;
14903;SDS011;7543;53.148;8.234;2022-12-29T02:10:17;1.50;;;1.37;;
14903;SDS011;7543;53.148;8.234;2022-12-29T02:12:48;2.67;;;1.60;;
14903;SDS011;7543;53.148;8.234;2022-12-29T02:15:16;2.23;;;1.40;;
14903;SDS011;7543;53.148;8.234;2022-12-29T02:17:49;1.33;;;1.20;;
14903;SDS011;7543;53.148;8.234;2022-12-29T02:20:42;1.60;;;1.30;;
14903;SDS011;7543;53.148;8.234;2022-12-29T02:23:30;1.77;;;1.30;;
14903;SDS011;7543;53.148;8.234;2022-12-29T02:26:22;1.60;;;1.50;;
14903;SDS011;7543;53.148;8.234;2022-12-29T02:29:11;2.83;;;1.60;;
14903;SDS011;7543;53.148;8.234;2022-12-29T02:32:01;2.40;;;1.47;;
14903;SDS011;7543;53.148;8.234;2022-12-29T02:34:33;1.67;;;1.43;;
14903;SDS011;7543;53.148;8.234;2022-12-29T02:37:17;3.07;;;1.60;;
14903;SDS011;7543;53.148;8.234;2022-12-29T02:39:50;2.60;;;1.50;;
14903;SDS011;7543;53.148;8.234;2022-12-29T02:42:26;2.63;;;1.70;;
14903;SDS011;7543;53.148;8.234;2022-12-29T02:45:02;1.73;;;1.50;;
14903;SDS011;7543;53.148;8.234;2022-12-29T02:47:36;1.50;;;1.40;;
14903;SDS011;7543;53.148;8.234;2022-12-29T02:50:09;1.57;;;1.20;;
14903;SDS011;7543;53.148;8.234;2022-12-29T02:52:42;2.60;;;1.77;;
14903;SDS011;7543;53.148;8.234;2022-12-29T02:55:14;1.33;;;1.23;;
14903;SDS011;7543;53.148;8.234;2022-12-29T02:57:42;2.00;;;1.30;;
14903;SDS011;7543;53.148;8.234;2022-12-29T03:00:12;2.87;;;1.27;;
14903;SDS011;7543;53.148;8.234;2022-12-29T03:02:47;2.57;;;1.63;;
14903;SDS011;7543;53.148;8.234;2022-12-29T03:05:40;1.77;;;1.40;;
14903;SDS011;7543;53.148;8.234;2022-12-29T03:08:19;1.50;;;1.17;;
14903;SDS011;7543;53.148;8.234;2022-12-29T03:10:52;1.73;;;1.30;;
14903;SDS011;7543;53.148;8.234;2022-12-29T03:13:25;1.83;;;1.50;;
14903;SDS011;7543;53.148;8.234;2022-12-29T03:16:15;1.93;;;1.60;;
14903;SDS011;7543;53.148;8.234;2022-12-29T03:18:51;3.13;;;1.93;;
14903;SDS011;7543;53.148;8.234;2022-12-29T03:21:27;3.70;;;1.60;;
14903;SDS011;7543;53.148;8.234;2022-12-29T03:24:15;1.50;;;1.33;;
14903;SDS011;7543;53.148;8.234;2022-12-29T03:26:44;1.60;;;1.33;;
14903;SDS011;7543;53.148;8.234;2022-12-29T03:29:13;2.83;;;1.40;;
14903;SDS011;7543;53.148;8.234;2022-12-29T03:31:45;2.17;;;1.40;;
14903;SDS011;7543;53.148;8.234;2022-12-29T03:34:15;2.80;;;1.37;;
14903;SDS011;7543;53.148;8.234;2022-12-29T03:36:46;1.83;;;1.33;;
14903;SDS011;7543;53.148;8.234;2022-12-29T03:39:15;1.37;;;1.27;;
14903;SDS011;7543;53.148;8.234;2022-12-29T03:41:45;2.03;;;1.30;;
14903;SDS011;7543;53.148;8.234;2022-12-29T03:44:14;1.80;;;1.13;;
14903;SDS011;7543;53.148;8.234;2022-12-29T03:46:43;2.70;;;1.40;;
14903;SDS011;7543;53.148;8.234;2022-12-29T03:49:11;1.80;;;1.13;;
14903;SDS011;7543;53.148;8.234;2022-12-29T03:51:41;1.57;;;1.13;;
14903;SDS011;7543;53.148;8.234;2022-12-29T03:54:10;1.37;;;1.00;;
14903;SDS011;7543;53.148;8.234;2022-12-29T03:56:38;1.40;;;1.03;;
14903;SDS011;7543;53.148;8.234;2022-12-29T03:59:06;1.53;;;1.20;;
14903;SDS011;7543;53.148;8.234;2022-12-29T04:01:39;2.07;;;1.20;;
14903;SDS011;7543;53.148;8.234;2022-12-29T04:04:08;3.30;;;1.10;;
14903;SDS011;7543;53.148;8.234;2022-12-29T04:06:36;3.53;;;1.00;;
14903;SDS011;7543;53.148;8.234;2022-12-29T04:09:09;1.17;;;1.03;;
14903;SDS011;7543;53.148;8.234;2022-12-29T04:11:42;1.07;;;0.90;;
14903;SDS011;7543;53.148;8.234;2022-12-29T04:14:10;0.83;;;0.70;;
14903;SDS011;7543;53.148;8.234;2022-12-29T04:16:38;1.00;;;0.90;;
14903;SDS011;7543;53.148;8.234;2022-12-29T04:19:07;1.07;;;0.97;;
14903;SDS011;7543;53.148;8.234;2022-12-29T04:21:37;1.60;;;0.87;;
14903;SDS011;7543;53.148;8.234;2022-12-29T04:24:05;2.63;;;0.83;;
14903;SDS011;7543;53.148;8.234;2022-12-29T04:26:39;0.97;;;0.87;;
14903;SDS011;7543;53.148;8.234;2022-12-29T04:29:28;1.17;;;0.80;;
14903;SDS011;7543;53.148;8.234;2022-12-29T04:32:27;0.67;;;0.67;;
14903;SDS011;7543;53.148;8.234;2022-12-29T04:34:56;1.27;;;0.80;;
14903;SDS011;7543;53.148;8.234;2022-12-29T04:37:24;1.27;;;0.83;;
14903;SDS011;7543;53.148;8.234;2022-12-29T04:39:53;0.67;;;0.63;;
14903;SDS011;7543;53.148;8.234;2022-12-29T04:42:23;0.70;;;0.60;;
14903;SDS011;7543;53.148;8.234;2022-12-29T04:44:51;0.80;;;0.80;;
14903;SDS011;7543;53.148;8.234;2022-12-29T04:47:43;3.60;;;0.70;;
14903;SDS011;7543;53.148;8.234;2022-12-29T04:50:34;1.20;;;0.80;;
14903;SDS011;7543;53.148;8.234;2022-12-29T04:53:15;1.17;;;0.80;;
14903;SDS011;7543;53.148;8.234;2022-12-29T04:55:44;0.57;;;0.50;;
14903;SDS011;7543;53.148;8.234;2022-12-29T04:58:17;0.37;;;0.37;;
14903;SDS011;7543;53.148;8.234;2022-12-29T05:00:45;0.80;;;0.53;;
14903;SDS011;7543;53.148;8.234;2022-12-29T05:03:14;0.93;;;0.70;;
14903;SDS011;7543;53.148;8.234;2022-12-29T05:05:43;0.50;;;0.50;;
14903;SDS011;7543;53.148;8.234;2022-12-29T05:08:12;2.30;;;0.70;;
14903;SDS011;7543;53.148;8.234;2022-12-29T05:10:43;1.53;;;0.50;;
14903;SDS011;7543;53.148;8.234;2022-12-29T05:13:13;0.50;;;0.40;;
14903;SDS011;7543;53.148;8.234;2022-12-29T05:15:47;0.83;;;0.60;;
14903;SDS011;7543;53.148;8.234;2022-12-29T05:18:16;2.83;;;0.70;;
14903;SDS011;7543;53.148;8.234;2022-12-29T05:20:44;0.50;;;0.50;;
14903;SDS011;7543;53.148;8.234;2022-12-29T05:23:13;1.73;;;0.70;;
14903;SDS011;7543;53.148;8.234;2022-12-29T05:25:43;0.47;;;0.47;;
14903;SDS011;7543;53.148;8.234;2022-12-29T05:28:22;0.60;;;0.50;;
14903;SDS011;7543;53.148;8.234;2022-12-29T05:30:58;3.40;;;0.50;;
14903;SDS011;7543;53.148;8.234;2022-12-29T05:33:27;1.43;;;0.50;;
14903;SDS011;7543;53.148;8.234;2022-12-29T05:35:55;0.60;;;0.50;;
14903;SDS011;7543;53.148;8.234;2022-12-29T05:38:24;1.67;;;0.40;;
14903;SDS011;7543;53.148;8.234;2022-12-29T05:40:53;0.80;;;0.50;;
14903;SDS011;7543;53.148;8.234;2022-12-29T05:43:41;1.90;;;0.30;;
14903;SDS011;7543;53.148;8.234;2022-12-29T05:46:20;0.77;;;0.40;;
14903;SDS011;7543;53.148;8.234;2022-12-29T05:49:07;2.30;;;0.50;;
14903;SDS011;7543;53.148;8.234;2022-12-29T05:51:52;0.63;;;0.40;;
14903;SDS011;7543;53.148;8.234;2022-12-29T05:54:20;2.90;;;0.63;;
14903;SDS011;7543;53.148;8.234;2022-12-29T05:56:49;1.87;;;0.50;;
14903;SDS011;7543;53.148;8.234;2022-12-29T05:59:17;2.97;;;0.47;;
14903;SDS011;7543;53.148;8.234;2022-12-29T06:01:49;0.87;;;0.43;;
14903;SDS011;7543;53.148;8.234;2022-12-29T06:04:18;0.37;;;0.30;;
14903;SDS011;7543;53.148;8.234;2022-12-29T06:06:47;0.40;;;0.40;;
14903;SDS011;7543;53.148;8.234;2022-12-29T06:09:23;0.30;;;0.30;;
14903;SDS011;7543;53.148;8.234;2022-12-29T06:11:53;2.30;;;0.37;;
14903;SDS011;7543;53.148;8.234;2022-12-29T06:14:21;0.77;;;0.50;;
14903;SDS011;7543;53.148;8.234;2022-12-29T06:16:51;1.00;;;0.60;;
14903;SDS011;7543;53.148;8.234;2022-12-29T06:19:19;0.50;;;0.43;;
14903;SDS011;7543;53.148;8.234;2022-12-29T06:21:47;2.03;;;0.60;;
14903;SDS011;7543;53.148;8.234;2022-12-29T06:24:15;0.53;;;0.40;;
14903;SDS011;7543;53.148;8.234;2022-12-29T06:26:44;0.77;;;0.60;;
14903;SDS011;7543;53.148;8.234;2022-12-29T06:29:12;1.27;;;0.60;;
14903;SDS011;7543;53.148;8.234;2022-12-29T06:31:43;3.40;;;0.50;;
14903;SDS011;7543;53.148;8.234;2022-12-29T06:34:14;2.33;;;0.50;;
14903;SDS011;7543;53.148;8.234;2022-12-29T06:36:42;0.60;;;0.40;;
14903;SDS011;7543;53.148;8.234;2022-12-29T06:39:10;0.40;;;0.40;;
14903;SDS011;7543;53.148;8.234;2022-12-29T06:41:38;0.97;;;0.50;;
14903;SDS011;7543;53.148;8.234;2022-12-29T06:44:22;1.40;;;0.60;;
14903;SDS011;7543;53.148;8.234;2022-12-29T06:46:53;0.90;;;0.60;;
14903;SDS011;7543;53.148;8.234;2022-12-29T06:49:23;0.67;;;0.60;;
14903;SDS011;7543;53.148;8.234;2022-12-29T06:51:51;0.97;;;0.50;;
14903;SDS011;7543;53.148;8.234;2022-12-29T06:54:19;0.77;;;0.70;;
14903;SDS011;7543;53.148;8.234;2022-12-29T06:56:47;1.40;;;1.10;;
14903;SDS011;7543;53.148;8.234;2022-12-29T06:59:15;1.90;;;0.80;;
14903;SDS011;7543;53.148;8.234;2022-12-29T07:01:43;0.57;;;0.57;;
14903;SDS011;7543;53.148;8.234;2022-12-29T07:04:11;2.27;;;0.73;;
14903;SDS011;7543;53.148;8.234;2022-12-29T07:06:41;2.27;;;0.60;;
14903;SDS011;7543;53.148;8.234;2022-12-29T07:09:09;1.27;;;0.73;;
14903;SDS011;7543;53.148;8.234;2022-12-29T07:11:38;3.37;;;0.70;;
14903;SDS011;7543;53.148;8.234;2022-12-29T07:14:06;2.40;;;0.67;;
14903;SDS011;7543;53.148;8.234;2022-12-29T07:16:34;0.53;;;0.53;;
14903;SDS011;7543;53.148;8.234;2022-12-29T07:19:02;2.87;;;0.80;;
14903;SDS011;7543;53.148;8.234;2022-12-29T07:21:30;1.17;;;0.80;;
14903;SDS011;7543;53.148;8.234;2022-12-29T07:24:00;0.90;;;0.70;;
14903;SDS011;7543;53.148;8.234;2022-12-29T07:26:28;4.60;;;0.73;;
14903;SDS011;7543;53.148;8.234;2022-12-29T07:28:56;2.13;;;0.67;;
14903;SDS011;7543;53.148;8.234;2022-12-29T07:31:24;0.93;;;0.80;;
14903;SDS011;7543;53.148;8.234;2022-12-29T07:33:53;2.40;;;0.60;;
14903;SDS011;7543;53.148;8.234;2022-12-29T07:36:22;0.50;;;0.40;;
14903;SDS011;7543;53.148;8.234;2022-12-29T07:38:50;0.83;;;0.60;;
14903;SDS011;7543;53.148;8.234;2022-12-29T07:41:19;1.23;;;0.60;;
14903;SDS011;7543;53.148;8.234;2022-12-29T07:43:47;2.87;;;1.00;;
14903;SDS011;7543;53.148;8.234;2022-12-29T07:46:44;1.33;;;0.67;;
14903;SDS011;7543;53.148;8.234;2022-12-29T07:49:13;3.23;;;0.90;;
14903;SDS011;7543;53.148;8.234;2022-12-29T07:51:41;3.07;;;0.60;;
14903;SDS011;7543;53.148;8.234;2022-12-29T07:54:09;0.40;;;0.40;;
14903;SDS011;7543;53.148;8.234;2022-12-29T07:56:40;2.40;;;0.70;;
14903;SDS011;7543;53.148;8.234;2022-12-29T07:59:09;2.20;;;0.50;;
14903;SDS011;7543;53.148;8.234;2022-12-29T08:01:38;1.53;;;0.70;;
14903;SDS011;7543;53.148;8.234;2022-12-29T08:04:07;1.57;;;0.70;;
14903;SDS011;7543;53.148;8.234;2022-12-29T08:06:35;2.37;;;0.80;;
14903;SDS011;7543;53.148;8.234;2022-12-29T08:09:04;3.37;;;0.90;;
14903;SDS011;7543;53.148;8.234;2022-12-29T08:11:33;0.67;;;0.60;;
14903;SDS011;7543;53.148;8.234;2022-12-29T08:14:03;1.87;;;0.70;;
14903;SDS011;7543;53.148;8.234;2022-12-29T08:16:31;0.70;;;0.43;;
14903;SDS011;7543;53.148;8.234;2022-12-29T08:18:59;5.03;;;1.27;;
14903;SDS011;7543;53.148;8.234;2022-12-29T08:21:28;1.30;;;0.70;;
14903;SDS011;7543;53.148;8.234;2022-12-29T08:23:56;1.77;;;0.70;;
14903;SDS011;7543;53.148;8.234;2022-12-29T08:26:25;1.77;;;0.90;;
14903;SDS011;7543;53.148;8.234;2022-12-29T08:28:56;5.60;;;1.00;;
14903;SDS011;7543;53.148;8.234;2022-12-29T08:31:25;1.70;;;0.80;;
14903;SDS011;7543;53.148;8.234;2022-12-29T08:33:54;0.90;;;0.40;;
14903;SDS011;7543;53.148;8.234;2022-12-29T08:36:22;2.40;;;1.10;;
14903;SDS011;7543;53.148;8.234;2022-12-29T08:38:50;1.83;;;0.80;;
14903;SDS011;7543;53.148;8.234;2022-12-29T08:41:18;3.03;;;0.80;;
14903;SDS011;7543;53.148;8.234;2022-12-29T08:43:46;2.20;;;0.57;;
14903;SDS011;7543;53.148;8.234;2022-12-29T08:46:15;4.57;;;0.70;;
14903;SDS011;7543;53.148;8.234;2022-12-29T08:48:44;3.60;;;0.80;;
14903;SDS011;7543;53.148;8.234;2022-12-29T08:51:13;3.27;;;0.80;;
14903;SDS011;7543;53.148;8.234;2022-12-29T08:53:41;3.03;;;0.70;;
14903;SDS011;7543;53.148;8.234;2022-12-29T08:56:10;5.23;;;0.93;;
14903;SDS011;7543;53.148;8.234;2022-12-29T08:58:48;2.23;;;0.83;;
14903;SDS011;7543;53.148;8.234;2022-12-29T09:01:18;4.53;;;0.70;;
14903;SDS011;7543;53.148;8.234;2022-12-29T09:03:48;1.20;;;0.70;;
14903;SDS011;7543;53.148;8.234;2022-12-29T09:06:17;1.83;;;0.70;;
14903;SDS011;7543;53.148;8.234;2022-12-29T09:08:45;6.13;;;0.93;;
14903;SDS011;7543;53.148;8.234;2022-12-29T09:11:14;4.73;;;0.73;;
14903;SDS011;7543;53.148;8.234;2022-12-29T09:13:44;1.73;;;1.00;;
14903;SDS011;7543;53.148;8.234;2022-12-29T09:16:13;2.00;;;0.80;;
14903;SDS011;7543;53.148;8.234;2022-12-29T09:18:41;1.13;;;0.50;;
14903;SDS011;7543;53.148;8.234;2022-12-29T09:21:11;1.70;;;0.67;;
14903;SDS011;7543;53.148;8.234;2022-12-29T09:23:40;1.00;;;0.90;;
14903;SDS011;7543;53.148;8.234;2022-12-29T09:26:08;2.33;;;0.70;;
14903;SDS011;7543;53.148;8.234;2022-12-29T09:28:37;3.30;;;0.90;;
14903;SDS011;7543;53.148;8.234;2022-12-29T09:31:05;1.47;;;0.70;;
14903;SDS011;7543;53.148;8.234;2022-12-29T09:33:33;1.90;;;0.97;;
14903;SDS011;7543;53.148;8.234;2022-12-29T09:36:02;3.10;;;0.73;;
14903;SDS011;7543;53.148;8.234;2022-12-29T09:38:31;2.13;;;0.80;;
14903;SDS011;7543;53.148;8.234;2022-12-29T09:41:01;0.87;;;0.60;;
14903;SDS011;7543;53.148;8.234;2022-12-29T09:43:41;3.77;;;0.60;;
14903;SDS011;7543;53.148;8.234;2022-12-29T09:46:17;2.90;;;1.00;;
14903;SDS011;7543;53.148;8.234;2022-12-29T09:48:50;2.40;;;0.83;;
14903;SDS011;7543;53.148;8.234;2022-12-29T09:51:22;1.87;;;0.73;;
14903;SDS011;7543;53.148;8.234;2022-12-29T09:53:53;2.60;;;0.70;;
14903;SDS011;7543;53.148;8.234;2022-12-29T09:56:24;1.53;;;0.63;;
14903;SDS011;7543;53.148;8.234;2022-12-29T09:58:54;5.57;;;0.87;;
14903;SDS011;7543;53.148;8.234;2022-12-29T10:01:29;3.10;;;0.83;;
14903;SDS011;7543;53.148;8.234;2022-12-29T10:03:59;1.20;;;0.70;;
14903;SDS011;7543;53.148;8.234;2022-12-29T10:06:33;2.67;;;0.83;;
14903;SDS011;7543;53.148;8.234;2022-12-29T10:09:10;1.60;;;0.70;;
14903;SDS011;7543;53.148;8.234;2022-12-29T10:11:47;3.77;;;0.40;;
14903;SDS011;7543;53.148;8.234;2022-12-29T10:14:29;1.43;;;0.60;;
14903;SDS011;7543;53.148;8.234;2022-12-29T10:17:07;2.00;;;0.77;;
14903;SDS011;7543;53.148;8.234;2022-12-29T10:19:44;3.93;;;0.57;;
14903;SDS011;7543;53.148;8.234;2022-12-29T10:22:22;1.00;;;0.60;;
14903;SDS011;7543;53.148;8.234;2022-12-29T10:24:59;1.53;;;0.60;;
14903;SDS011;7543;53.148;8.234;2022-12-29T10:27:30;2.87;;;0.60;;
14903;SDS011;7543;53.148;8.234;2022-12-29T10:29:59;4.40;;;0.90;;
14903;SDS011;7543;53.148;8.234;2022-12-29T10:32:29;1.67;;;0.67;;
14903;SDS011;7543;53.148;8.234;2022-12-29T10:35:02;2.13;;;0.80;;
14903;SDS011;7543;53.148;8.234;2022-12-29T10:37:34;3.30;;;0.60;;
14903;SDS011;7543;53.148;8.234;2022-12-29T10:40:17;0.67;;;0.53;;
14903;SDS011;7543;53.148;8.234;2022-12-29T10:42:49;1.80;;;0.70;;
14903;SDS011;7543;53.148;8.234;2022-12-29T10:45:22;5.70;;;0.80;;
14903;SDS011;7543;53.148;8.234;2022-12-29T10:47:54;1.33;;;0.67;;
14903;SDS011;7543;53.148;8.234;2022-12-29T10:50:27;1.60;;;0.50;;
14903;SDS011;7543;53.148;8.234;2022-12-29T10:52:56;5.10;;;0.80;;
14903;SDS011;7543;53.148;8.234;2022-12-29T10:55:27;2.50;;;0.83;;
14903;SDS011;7543;53.148;8.234;2022-12-29T10:57:59;3.60;;;0.80;;
14903;SDS011;7543;53.148;8.234;2022-12-29T11:00:32;1.63;;;0.67;;
14903;SDS011;7543;53.148;8.234;2022-12-29T11:05:56;4.93;;;0.50;;
14903;SDS011;7543;53.148;8.234;2022-12-29T11:08:27;0.93;;;0.53;;
14903;SDS011;7543;53.148;8.234;2022-12-29T11:11:00;4.83;;;0.63;;
14903;SDS011;7543;53.148;8.234;2022-12-29T11:13:30;2.33;;;0.70;;
14903;SDS011;7543;53.148;8.234;2022-12-29T11:16:00;4.13;;;0.70;;
14903;SDS011;7543;53.148;8.234;2022-12-29T11:18:32;2.67;;;0.73;;
14903;SDS011;7543;53.148;8.234;2022-12-29T11:21:03;3.30;;;0.73;;
14903;SDS011;7543;53.148;8.234;2022-12-29T11:23:33;5.67;;;1.53;;
14903;SDS011;7543;53.148;8.234;2022-12-29T11:26:14;3.40;;;0.90;;
14903;SDS011;7543;53.148;8.234;2022-12-29T11:28:44;2.37;;;0.93;;
14903;SDS011;7543;53.148;8.234;2022-12-29T11:31:16;3.07;;;0.90;;
14903;SDS011;7543;53.148;8.234;2022-12-29T11:33:45;2.93;;;0.70;;
14903;SDS011;7543;53.148;8.234;2022-12-29T11:36:15;4.30;;;1.33;;
14903;SDS011;7543;53.148;8.234;2022-12-29T11:38:46;3.57;;;0.80;;
14903;SDS011;7543;53.148;8.234;2022-12-29T11:41:19;2.07;;;0.83;;
14903;SDS011;7543;53.148;8.234;2022-12-29T11:43:49;4.57;;;0.90;;
14903;SDS011;7543;53.148;8.234;2022-12-29T11:46:18;2.30;;;0.80;;
14903;SDS011;7543;53.148;8.234;2022-12-29T11:48:47;2.47;;;0.70;;
14903;SDS011;7543;53.148;8.234;2022-12-29T11:51:21;1.70;;;0.40;;
14903;SDS011;7543;53.148;8.234;2022-12-29T11:53:51;3.90;;;0.73;;
14903;SDS011;7543;53.148;8.234;2022-12-29T11:56:30;4.27;;;0.73;;
14903;SDS011;7543;53.148;8.234;2022-12-29T12:02:08;2.53;;;1.03;;
14903;SDS011;7543;53.148;8.234;2022-12-29T12:04:42;4.20;;;0.80;;
14903;SDS011;7543;53.148;8.234;2022-12-29T12:07:11;1.73;;;0.87;;
14903;SDS011;7543;53.148;8.234;2022-12-29T12:09:42;3.40;;;0.70;;
14903;SDS011;7543;53.148;8.234;2022-12-29T12:12:16;2.60;;;0.90;;
14903;SDS011;7543;53.148;8.234;2022-12-29T12:14:51;1.47;;;0.47;;
14903;SDS011;7543;53.148;8.234;2022-12-29T12:17:50;1.83;;;0.70;;
14903;SDS011;7543;53.148;8.234;2022-12-29T12:20:21;3.90;;;0.80;;
14903;SDS011;7543;53.148;8.234;2022-12-29T12:22:53;2.27;;;0.70;;
14903;SDS011;7543;53.148;8.234;2022-12-29T12:25:29;2.87;;;0.70;;
14903;SDS011;7543;53.148;8.234;2022-12-29T12:28:01;3.10;;;0.70;;
14903;SDS011;7543;53.148;8.234;2022-12-29T12:30:33;2.10;;;0.67;;
14903;SDS011;7543;53.148;8.234;2022-12-29T12:33:10;4.37;;;1.00;;
14903;SDS011;7543;53.148;8.234;2022-12-29T12:35:44;2.60;;;0.90;;
14903;SDS011;7543;53.148;8.234;2022-12-29T12:38:27;2.50;;;0.93;;
14903;SDS011;7543;53.148;8.234;2022-12-29T12:41:03;4.10;;;0.70;;
14903;SDS011;7543;53.148;8.234;2022-12-29T12:43:40;1.53;;;0.80;;
14903;SDS011;7543;53.148;8.234;2022-12-29T12:49:20;1.43;;;0.50;;
14903;SDS011;7543;53.148;8.234;2022-12-29T12:52:04;0.97;;;0.57;;
14903;SDS011;7543;53.148;8.234;2022-12-29T12:54:41;5.10;;;0.57;;
14903;SDS011;7543;53.148;8.234;2022-12-29T12:57:17;2.07;;;0.80;;
14903;SDS011;7543;53.148;8.234;2022-12-29T12:59:56;1.30;;;0.70;;
14903;SDS011;7543;53.148;8.234;2022-12-29T13:02:34;2.00;;;0.67;;
14903;SDS011;7543;53.148;8.234;2022-12-29T13:05:20;3.20;;;0.97;;
14903;SDS011;7543;53.148;8.234;2022-12-29T13:07:57;1.77;;;0.80;;
14903;SDS011;7543;53.148;8.234;2022-12-29T13:10:36;3.60;;;1.23;;
14903;SDS011;7543;53.148;8.234;2022-12-29T13:13:25;1.80;;;0.97;;
14903;SDS011;7543;53.148;8.234;2022-12-29T13:16:22;1.07;;;0.50;;
14903;SDS011;7543;53.148;8.234;2022-12-29T13:18:57;3.47;;;1.00;;
14903;SDS011;7543;53.148;8.234;2022-12-29T13:21:30;5.23;;;1.00;;
14903;SDS011;7543;53.148;8.234;2022-12-29T13:24:04;6.00;;;1.40;;
14903;SDS011;7543;53.148;8.234;2022-12-29T13:26:42;4.83;;;0.83;;
14903;SDS011;7543;53.148;8.234;2022-12-29T13:29:13;2.13;;;1.10;;
14903;SDS011;7543;53.148;8.234;2022-12-29T13:31:47;2.30;;;0.70;;
14903;SDS011;7543;53.148;8.234;2022-12-29T13:34:22;6.53;;;0.90;;
14903;SDS011;7543;53.148;8.234;2022-12-29T13:36:56;2.13;;;0.90;;
14903;SDS011;7543;53.148;8.234;2022-12-29T13:39:27;3.50;;;1.23;;
14903;SDS011;7543;53.148;8.234;2022-12-29T13:41:59;3.00;;;0.90;;
14903;SDS011;7543;53.148;8.234;2022-12-29T13:44:30;1.07;;;0.70;;
14903;SDS011;7543;53.148;8.234;2022-12-29T13:47:02;1.27;;;0.70;;
14903;SDS011;7543;53.148;8.234;2022-12-29T13:49:34;1.33;;;0.53;;
14903;SDS011;7543;53.148;8.234;2022-12-29T13:52:04;2.40;;;0.90;;
14903;SDS011;7543;53.148;8.234;2022-12-29T13:54:39;5.47;;;1.07;;
14903;SDS011;7543;53.148;8.234;2022-12-29T13:57:13;3.60;;;1.17;;
14903;SDS011;7543;53.148;8.234;2022-12-29T13:59:48;6.90;;;1.00;;
14903;SDS011;7543;53.148;8.234;2022-12-29T14:02:21;5.83;;;1.17;;
14903;SDS011;7543;53.148;8.234;2022-12-29T14:04:55;1.60;;;0.90;;
14903;SDS011;7543;53.148;8.234;2022-12-29T14:07:27;4.80;;;1.13;;
14903;SDS011;7543;53.148;8.234;2022-12-29T14:09:55;6.73;;;1.10;;
14903;SDS011;7543;53.148;8.234;2022-12-29T14:12:28;3.63;;;1.23;;
14903;SDS011;7543;53.148;8.234;2022-12-29T14:15:04;2.50;;;0.70;;
14903;SDS011;7543;53.148;8.234;2022-12-29T14:17:44;3.40;;;1.00;;
14903;SDS011;7543;53.148;8.234;2022-12-29T14:20:29;6.03;;;1.67;;
14903;SDS011;7543;53.148;8.234;2022-12-29T14:22:58;3.37;;;1.00;;
14903;SDS011;7543;53.148;8.234;2022-12-29T14:28:26;2.23;;;0.93;;
14903;SDS011;7543;53.148;8.234;2022-12-29T14:30:56;4.00;;;1.07;;
14903;SDS011;7543;53.148;8.234;2022-12-29T14:33:27;2.00;;;0.87;;
14903;SDS011;7543;53.148;8.234;2022-12-29T14:35:57;3.70;;;0.90;;
14903;SDS011;7543;53.148;8.234;2022-12-29T14:38:46;1.17;;;0.70;;
14903;SDS011;7543;53.148;8.234;2022-12-29T14:41:16;3.60;;;1.03;;
14903;SDS011;7543;53.148;8.234;2022-12-29T14:43:53;2.83;;;1.10;;
14903;SDS011;7543;53.148;8.234;2022-12-29T14:46:23;2.60;;;0.80;;
14903;SDS011;7543;53.148;8.234;2022-12-29T14:48:56;4.27;;;0.70;;
14903;SDS011;7543;53.148;8.234;2022-12-29T14:51:31;3.00;;;0.90;;
14903;SDS011;7543;53.148;8.234;2022-12-29T14:57:22;4.60;;;1.10;;
14903;SDS011;7543;53.148;8.234;2022-12-29T14:59:54;4.23;;;1.17;;
14903;SDS011;7543;53.148;8.234;2022-12-29T15:02:25;7.50;;;0.97;;
14903;SDS011;7543;53.148;8.234;2022-12-29T15:04:58;2.70;;;0.87;;
14903;SDS011;7543;53.148;8.234;2022-12-29T15:07:27;7.30;;;1.70;;
14903;SDS011;7543;53.148;8.234;2022-12-29T15:09:58;3.20;;;1.23;;
14903;SDS011;7543;53.148;8.234;2022-12-29T15:12:33;2.43;;;1.17;;
14903;SDS011;7543;53.148;8.234;2022-12-29T15:15:18;2.00;;;1.13;;
14903;SDS011;7543;53.148;8.234;2022-12-29T15:17:49;2.50;;;0.97;;
14903;SDS011;7543;53.148;8.234;2022-12-29T15:20:22;5.53;;;1.50;;
14903;SDS011;7543;53.148;8.234;2022-12-29T15:22:54;6.23;;;1.20;;
14903;SDS011;7543;53.148;8.234;2022-12-29T15:25:23;1.70;;;0.87;;
14903;SDS011;7543;53.148;8.234;2022-12-29T15:27:53;2.67;;;1.13;;
14903;SDS011;7543;53.148;8.234;2022-12-29T15:30:24;5.70;;;1.33;;
14903;SDS011;7543;53.148;8.234;2022-12-29T15:32:52;3.20;;;1.30;;
14903;SDS011;7543;53.148;8.234;2022-12-29T15:35:26;5.37;;;1.40;;
14903;SDS011;7543;53.148;8.234;2022-12-29T15:40:25;5.53;;;1.17;;
14903;SDS011;7543;53.148;8.234;2022-12-29T15:43:07;3.77;;;1.40;;
14903;SDS011;7543;53.148;8.234;2022-12-29T15:45:41;3.27;;;1.30;;
14903;SDS011;7543;53.148;8.234;2022-12-29T15:48:12;5.83;;;1.33;;
14903;SDS011;7543;53.148;8.234;2022-12-29T15:50:45;8.17;;;1.90;;
14903;SDS011;7543;53.148;8.234;2022-12-29T15:53:17;11.37;;;3.10;;
14903;SDS011;7543;53.148;8.234;2022-12-29T15:59:44;5.40;;;1.40;;